sensor_id;sensor_type;location;lat;lon;timestamp;pressure;altitude;pressure_sealevel;temperature;humidity
28008;BME280;15333;50.010;20.020;2023-05-10T00:01:02;99122.84;;;4.66;96.65
28008;BME280;15333;50.010;20.020;2023-05-10T00:04:03;99120.81;;;4.71;98.19
28008;BME280;15333;50.010;20.020;2023-05-10T00:07:04;99115.44;;;4.91;98.06
28008;BME280;15333;50.010;20.020;2023-05-10T00:10:05;99115.13;;;4.97;97.89
28008;BME280;15333;50.010;20.020;2023-05-10T00:13:06;99101.13;;;4.95;97.32
28008;BME280;15333;50.010;20.020;2023-05-10T00:16:07;99108.28;;;4.93;98.10
28008;BME280;15333;50.010;20.020;2023-05-10T00:19:08;99103.09;;;4.90;97.13
28008;BME280;15333;50.010;20.020;2023-05-10T00:22:09;99103.41;;;4.84;97.80
28008;BME280;15333;50.010;20.020;2023-05-10T00:25:11;99098.56;;;4.75;98.98
28008;BME280;15333;50.010;20.020;2023-05-10T00:28:12;99102.78;;;4.60;99.39
28008;BME280;15333;50.010;20.020;2023-05-10T00:31:13;99101.13;;;4.58;100.00
28008;BME280;15333;50.010;20.020;2023-05-10T00:34:15;99098.19;;;4.64;100.00
28008;BME280;15333;50.010;20.020;2023-05-10T00:37:16;99103.28;;;4.68;100.00
28008;BME280;15333;50.010;20.020;2023-05-10T00:40:16;99100.53;;;4.70;100.00
28008;BME280;15333;50.010;20.020;2023-05-10T00:43:21;99102.44;;;4.68;100.00
28008;BME280;15333;50.010;20.020;2023-05-10T00:46:22;99095.59;;;4.62;100.00
28008;BME280;15333;50.010;20.020;2023-05-10T00:49:24;99088.00;;;4.55;100.00
28008;BME280;15333;50.010;20.020;2023-05-10T00:52:24;99097.25;;;4.46;100.00
28008;BME280;15333;50.010;20.020;2023-05-10T00:55:27;99098.00;;;4.29;100.00
28008;BME280;15333;50.010;20.020;2023-05-10T00:58:27;99094.78;;;4.23;100.00
28008;BME280;15333;50.010;20.020;2023-05-10T01:01:29;99089.84;;;4.15;100.00
28008;BME280;15333;50.010;20.020;2023-05-10T01:04:30;99096.44;;;4.05;100.00
28008;BME280;15333;50.010;20.020;2023-05-10T01:07:31;99096.13;;;3.92;100.00
28008;BME280;15333;50.010;20.020;2023-05-10T01:10:32;99081.00;;;3.96;100.00
28008;BME280;15333;50.010;20.020;2023-05-10T01:13:36;99084.97;;;3.86;100.00
28008;BME280;15333;50.010;20.020;2023-05-10T01:16:40;99086.56;;;3.90;100.00
28008;BME280;15333;50.010;20.020;2023-05-10T01:19:43;99086.28;;;3.96;100.00
28008;BME280;15333;50.010;20.020;2023-05-10T01:23:17;99078.88;;;4.04;100.00
28008;BME280;15333;50.010;20.020;2023-05-10T01:26:30;99082.72;;;3.97;100.00
28008;BME280;15333;50.010;20.020;2023-05-10T01:30:25;99073.06;;;3.96;100.00
28008;BME280;15333;50.010;20.020;2023-05-10T01:33:27;99080.13;;;3.96;100.00
28008;BME280;15333;50.010;20.020;2023-05-10T01:39:47;99081.66;;;4.01;100.00
28008;BME280;15333;50.010;20.020;2023-05-10T01:43:00;99074.28;;;4.08;100.00
28008;BME280;15333;50.010;20.020;2023-05-10T01:46:06;99077.16;;;4.03;100.00
28008;BME280;15333;50.010;20.020;2023-05-10T01:49:24;99079.00;;;4.01;100.00
28008;BME280;15333;50.010;20.020;2023-05-10T01:52:32;99077.44;;;3.97;100.00
28008;BME280;15333;50.010;20.020;2023-05-10T01:55:41;99070.41;;;3.96;100.00
28008;BME280;15333;50.010;20.020;2023-05-10T01:58:44;99061.00;;;3.89;100.00
28008;BME280;15333;50.010;20.020;2023-05-10T02:01:48;99066.06;;;3.75;100.00
28008;BME280;15333;50.010;20.020;2023-05-10T02:04:53;99065.91;;;3.78;100.00
28008;BME280;15333;50.010;20.020;2023-05-10T02:07:56;99054.91;;;3.87;100.00
28008;BME280;15333;50.010;20.020;2023-05-10T02:10:59;99054.63;;;3.93;100.00
28008;BME280;15333;50.010;20.020;2023-05-10T02:14:02;99053.84;;;3.91;100.00
28008;BME280;15333;50.010;20.020;2023-05-10T02:17:05;99046.19;;;3.85;100.00
28008;BME280;15333;50.010;20.020;2023-05-10T02:20:08;99050.19;;;3.75;100.00
28008;BME280;15333;50.010;20.020;2023-05-10T02:23:09;99052.13;;;3.70;100.00
28008;BME280;15333;50.010;20.020;2023-05-10T02:26:12;99055.59;;;3.72;100.00
28008;BME280;15333;50.010;20.020;2023-05-10T02:29:15;99049.59;;;3.68;100.00
28008;BME280;15333;50.010;20.020;2023-05-10T02:32:17;99052.28;;;3.67;100.00
28008;BME280;15333;50.010;20.020;2023-05-10T02:35:20;99053.34;;;3.63;100.00
28008;BME280;15333;50.010;20.020;2023-05-10T02:38:22;99047.53;;;3.54;100.00
28008;BME280;15333;50.010;20.020;2023-05-10T02:41:25;99044.47;;;3.43;100.00
28008;BME280;15333;50.010;20.020;2023-05-10T02:44:27;99045.28;;;3.25;100.00
28008;BME280;15333;50.010;20.020;2023-05-10T02:47:31;99049.72;;;3.03;100.00
28008;BME280;15333;50.010;20.020;2023-05-10T02:50:33;99055.97;;;3.00;100.00
28008;BME280;15333;50.010;20.020;2023-05-10T02:53:36;99057.91;;;2.97;100.00
28008;BME280;15333;50.010;20.020;2023-05-10T02:56:43;99047.38;;;2.95;100.00
28008;BME280;15333;50.010;20.020;2023-05-10T02:59:47;99059.31;;;2.84;100.00
28008;BME280;15333;50.010;20.020;2023-05-10T03:02:48;99057.84;;;2.98;100.00
28008;BME280;15333;50.010;20.020;2023-05-10T03:05:49;99056.47;;;3.10;100.00
28008;BME280;15333;50.010;20.020;2023-05-10T03:08:50;99043.66;;;3.21;100.00
28008;BME280;15333;50.010;20.020;2023-05-10T03:12:05;99043.00;;;3.36;100.00
28008;BME280;15333;50.010;20.020;2023-05-10T03:18:27;99041.16;;;3.79;100.00
28008;BME280;15333;50.010;20.020;2023-05-10T03:21:29;99047.97;;;4.05;100.00
28008;BME280;15333;50.010;20.020;2023-05-10T03:24:33;99035.09;;;4.53;100.00
28008;BME280;15333;50.010;20.020;2023-05-10T03:27:36;99036.84;;;5.07;100.00
28008;BME280;15333;50.010;20.020;2023-05-10T03:30:40;99026.09;;;5.79;99.87
28008;BME280;15333;50.010;20.020;2023-05-10T03:33:51;99022.41;;;6.32;93.67
28008;BME280;15333;50.010;20.020;2023-05-10T03:36:58;99023.63;;;6.74;86.47
28008;BME280;15333;50.010;20.020;2023-05-10T03:40:01;99027.31;;;6.87;83.25
28008;BME280;15333;50.010;20.020;2023-05-10T03:43:06;99017.88;;;7.11;84.29
28008;BME280;15333;50.010;20.020;2023-05-10T03:46:07;99019.59;;;7.58;81.19
28008;BME280;15333;50.010;20.020;2023-05-10T03:49:09;99021.22;;;7.74;79.79
28008;BME280;15333;50.010;20.020;2023-05-10T03:52:11;99013.31;;;9.26;73.42
28008;BME280;15333;50.010;20.020;2023-05-10T03:55:12;99014.47;;;8.68;71.73
28008;BME280;15333;50.010;20.020;2023-05-10T03:58:13;99021.09;;;8.34;73.92
28008;BME280;15333;50.010;20.020;2023-05-10T04:01:14;99022.09;;;8.60;74.03
28008;BME280;15333;50.010;20.020;2023-05-10T04:04:15;99025.75;;;8.59;73.03
28008;BME280;15333;50.010;20.020;2023-05-10T04:07:16;99018.06;;;9.87;67.71
28008;BME280;15333;50.010;20.020;2023-05-10T04:10:17;99018.50;;;10.44;64.85
28008;BME280;15333;50.010;20.020;2023-05-10T04:13:18;99028.16;;;11.55;59.94
28008;BME280;15333;50.010;20.020;2023-05-10T04:16:19;99029.75;;;10.86;59.37
28008;BME280;15333;50.010;20.020;2023-05-10T04:19:20;99026.59;;;10.55;59.93
28008;BME280;15333;50.010;20.020;2023-05-10T04:22:21;99024.59;;;10.83;60.32
28008;BME280;15333;50.010;20.020;2023-05-10T04:25:22;99031.34;;;11.12;59.81
28008;BME280;15333;50.010;20.020;2023-05-10T04:28:22;99032.94;;;11.38;59.07
28008;BME280;15333;50.010;20.020;2023-05-10T04:31:23;99030.06;;;11.53;59.25
28008;BME280;15333;50.010;20.020;2023-05-10T04:34:24;99028.78;;;11.93;58.14
28008;BME280;15333;50.010;20.020;2023-05-10T04:37:26;99031.72;;;12.01;57.85
28008;BME280;15333;50.010;20.020;2023-05-10T04:40:26;99031.28;;;12.52;54.41
28008;BME280;15333;50.010;20.020;2023-05-10T04:43:28;99031.78;;;12.46;54.93
28008;BME280;15333;50.010;20.020;2023-05-10T04:46:28;99026.03;;;13.38;53.22
28008;BME280;15333;50.010;20.020;2023-05-10T04:49:29;99027.09;;;14.20;49.93
28008;BME280;15333;50.010;20.020;2023-05-10T04:52:30;99025.41;;;14.49;49.66
28008;BME280;15333;50.010;20.020;2023-05-10T04:55:31;99026.69;;;13.51;50.65
28008;BME280;15333;50.010;20.020;2023-05-10T04:58:32;99022.34;;;14.64;49.03
28008;BME280;15333;50.010;20.020;2023-05-10T05:01:34;99021.44;;;13.82;50.61
28008;BME280;15333;50.010;20.020;2023-05-10T05:04:34;99019.66;;;14.64;47.49
28008;BME280;15333;50.010;20.020;2023-05-10T05:07:35;99012.69;;;13.68;50.10
28008;BME280;15333;50.010;20.020;2023-05-10T05:10:36;99010.81;;;14.92;48.02
28008;BME280;15333;50.010;20.020;2023-05-10T05:13:37;99018.75;;;13.82;51.69
28008;BME280;15333;50.010;20.020;2023-05-10T05:16:39;99025.84;;;13.19;52.33
28008;BME280;15333;50.010;20.020;2023-05-10T05:19:40;99013.75;;;14.39;49.48
28008;BME280;15333;50.010;20.020;2023-05-10T05:22:41;99016.78;;;14.96;49.71
28008;BME280;15333;50.010;20.020;2023-05-10T05:25:42;99016.28;;;16.08;45.63
28008;BME280;15333;50.010;20.020;2023-05-10T05:28:43;99015.44;;;14.40;49.84
28008;BME280;15333;50.010;20.020;2023-05-10T05:31:44;99012.81;;;14.08;50.19
28008;BME280;15333;50.010;20.020;2023-05-10T05:34:45;99017.91;;;13.06;53.48
28008;BME280;15333;50.010;20.020;2023-05-10T05:37:46;99012.28;;;15.06;48.98
28008;BME280;15333;50.010;20.020;2023-05-10T05:40:47;99010.44;;;16.68;45.01
28008;BME280;15333;50.010;20.020;2023-05-10T05:43:48;99008.03;;;16.19;45.73
28008;BME280;15333;50.010;20.020;2023-05-10T05:46:48;99013.84;;;15.27;47.43
28008;BME280;15333;50.010;20.020;2023-05-10T05:49:50;99021.75;;;12.14;55.31
28008;BME280;15333;50.010;20.020;2023-05-10T05:52:51;99036.16;;;11.44;59.52
28008;BME280;15333;50.010;20.020;2023-05-10T05:55:53;99028.78;;;10.87;61.91
28008;BME280;15333;50.010;20.020;2023-05-10T05:58:54;99022.72;;;10.59;63.83
28008;BME280;15333;50.010;20.020;2023-05-10T06:01:55;99032.03;;;10.67;65.31
28008;BME280;15333;50.010;20.020;2023-05-10T06:04:56;99022.47;;;10.75;65.01
28008;BME280;15333;50.010;20.020;2023-05-10T06:07:59;99026.50;;;10.93;64.95
28008;BME280;15333;50.010;20.020;2023-05-10T06:11:01;99030.31;;;11.02;64.62
28008;BME280;15333;50.010;20.020;2023-05-10T06:14:04;99026.06;;;10.99;64.25
28008;BME280;15333;50.010;20.020;2023-05-10T06:17:05;99026.16;;;10.98;65.21
28008;BME280;15333;50.010;20.020;2023-05-10T06:20:07;99026.72;;;10.90;66.31
28008;BME280;15333;50.010;20.020;2023-05-10T06:23:08;99024.53;;;11.08;66.26
28008;BME280;15333;50.010;20.020;2023-05-10T06:26:09;99023.28;;;11.01;65.81
28008;BME280;15333;50.010;20.020;2023-05-10T06:29:10;99026.31;;;10.84;66.12
28008;BME280;15333;50.010;20.020;2023-05-10T06:32:11;99032.28;;;11.00;67.97
28008;BME280;15333;50.010;20.020;2023-05-10T06:35:15;99021.69;;;11.22;66.75
28008;BME280;15333;50.010;20.020;2023-05-10T06:38:16;99020.91;;;11.44;64.88
28008;BME280;15333;50.010;20.020;2023-05-10T06:41:17;99022.56;;;11.10;66.57
28008;BME280;15333;50.010;20.020;2023-05-10T06:44:17;99020.81;;;11.22;67.27
28008;BME280;15333;50.010;20.020;2023-05-10T06:47:18;99031.06;;;11.04;66.96
28008;BME280;15333;50.010;20.020;2023-05-10T06:50:19;99019.72;;;11.24;66.67
28008;BME280;15333;50.010;20.020;2023-05-10T06:53:20;99016.00;;;11.38;67.02
28008;BME280;15333;50.010;20.020;2023-05-10T06:56:21;99019.75;;;11.59;66.28
28008;BME280;15333;50.010;20.020;2023-05-10T06:59:22;99022.56;;;11.58;66.60
28008;BME280;15333;50.010;20.020;2023-05-10T07:02:23;99016.72;;;11.64;65.59
28008;BME280;15333;50.010;20.020;2023-05-10T07:05:24;99015.03;;;11.63;66.19
28008;BME280;15333;50.010;20.020;2023-05-10T07:08:24;99015.59;;;11.79;65.10
28008;BME280;15333;50.010;20.020;2023-05-10T07:11:25;99011.38;;;11.99;65.64
28008;BME280;15333;50.010;20.020;2023-05-10T07:14:27;99007.13;;;12.19;64.38
28008;BME280;15333;50.010;20.020;2023-05-10T07:17:28;99008.72;;;12.21;64.27
28008;BME280;15333;50.010;20.020;2023-05-10T07:20:29;99006.38;;;12.16;64.03
28008;BME280;15333;50.010;20.020;2023-05-10T07:23:30;99010.78;;;12.40;64.26
28008;BME280;15333;50.010;20.020;2023-05-10T07:26:31;99006.75;;;12.57;63.94
28008;BME280;15333;50.010;20.020;2023-05-10T07:29:32;99009.88;;;12.95;63.56
28008;BME280;15333;50.010;20.020;2023-05-10T07:32:33;99004.84;;;13.02;63.19
28008;BME280;15333;50.010;20.020;2023-05-10T07:35:34;99000.06;;;13.16;61.83
28008;BME280;15333;50.010;20.020;2023-05-10T07:38:35;98999.41;;;13.35;61.78
28008;BME280;15333;50.010;20.020;2023-05-10T07:41:36;99001.38;;;13.33;61.62
28008;BME280;15333;50.010;20.020;2023-05-10T07:44:38;98995.03;;;13.55;60.88
28008;BME280;15333;50.010;20.020;2023-05-10T07:47:39;99000.75;;;13.61;60.89
28008;BME280;15333;50.010;20.020;2023-05-10T07:50:39;98995.13;;;13.85;60.29
28008;BME280;15333;50.010;20.020;2023-05-10T07:53:40;98989.06;;;14.14;59.69
28008;BME280;15333;50.010;20.020;2023-05-10T07:56:41;98987.28;;;14.24;58.22
28008;BME280;15333;50.010;20.020;2023-05-10T07:59:46;98988.84;;;14.47;58.18
28008;BME280;15333;50.010;20.020;2023-05-10T08:02:47;98987.78;;;14.69;57.41
28008;BME280;15333;50.010;20.020;2023-05-10T08:05:48;98984.75;;;14.53;54.70
28008;BME280;15333;50.010;20.020;2023-05-10T08:08:49;98978.72;;;14.70;55.35
28008;BME280;15333;50.010;20.020;2023-05-10T08:11:51;98980.44;;;14.80;54.62
28008;BME280;15333;50.010;20.020;2023-05-10T08:14:52;98977.81;;;15.19;52.63
28008;BME280;15333;50.010;20.020;2023-05-10T08:17:52;98977.66;;;15.49;46.56
28008;BME280;15333;50.010;20.020;2023-05-10T08:20:53;98974.75;;;15.62;47.40
28008;BME280;15333;50.010;20.020;2023-05-10T08:23:54;98981.13;;;15.61;47.93
28008;BME280;15333;50.010;20.020;2023-05-10T08:26:55;98972.59;;;15.75;47.48
28008;BME280;15333;50.010;20.020;2023-05-10T08:29:56;98969.47;;;15.70;46.13
28008;BME280;15333;50.010;20.020;2023-05-10T08:32:57;98973.59;;;15.74;45.77
28008;BME280;15333;50.010;20.020;2023-05-10T08:35:58;98976.28;;;15.84;46.60
28008;BME280;15333;50.010;20.020;2023-05-10T08:38:59;98974.53;;;15.92;47.88
28008;BME280;15333;50.010;20.020;2023-05-10T08:42:01;98970.25;;;16.09;44.75
28008;BME280;15333;50.010;20.020;2023-05-10T08:45:03;98964.84;;;15.99;45.03
28008;BME280;15333;50.010;20.020;2023-05-10T08:48:06;98960.88;;;16.03;44.76
28008;BME280;15333;50.010;20.020;2023-05-10T08:51:08;98969.63;;;16.25;45.54
28008;BME280;15333;50.010;20.020;2023-05-10T08:54:10;98974.69;;;16.37;43.31
28008;BME280;15333;50.010;20.020;2023-05-10T08:57:11;98969.88;;;16.41;41.17
28008;BME280;15333;50.010;20.020;2023-05-10T09:00:13;98970.78;;;16.22;42.25
28008;BME280;15333;50.010;20.020;2023-05-10T09:03:14;98973.31;;;16.24;43.31
28008;BME280;15333;50.010;20.020;2023-05-10T09:06:15;98978.88;;;16.22;42.08
28008;BME280;15333;50.010;20.020;2023-05-10T09:09:17;98975.38;;;16.02;41.46
28008;BME280;15333;50.010;20.020;2023-05-10T09:12:18;98965.38;;;16.22;42.15
28008;BME280;15333;50.010;20.020;2023-05-10T09:15:19;98970.13;;;16.48;40.04
28008;BME280;15333;50.010;20.020;2023-05-10T09:18:21;98968.75;;;16.34;40.17
28008;BME280;15333;50.010;20.020;2023-05-10T09:21:21;98964.63;;;16.30;40.30
28008;BME280;15333;50.010;20.020;2023-05-10T09:24:25;98967.34;;;16.30;40.21
28008;BME280;15333;50.010;20.020;2023-05-10T09:27:27;98963.78;;;16.29;40.69
28008;BME280;15333;50.010;20.020;2023-05-10T09:30:29;98966.75;;;16.36;39.80
28008;BME280;15333;50.010;20.020;2023-05-10T09:33:43;98970.34;;;16.27;40.27
28008;BME280;15333;50.010;20.020;2023-05-10T09:36:52;98967.81;;;16.62;41.04
28008;BME280;15333;50.010;20.020;2023-05-10T09:39:54;98963.16;;;16.82;41.86
28008;BME280;15333;50.010;20.020;2023-05-10T09:43:02;98965.97;;;16.53;39.08
28008;BME280;15333;50.010;20.020;2023-05-10T09:46:08;98968.66;;;16.53;39.32
28008;BME280;15333;50.010;20.020;2023-05-10T09:49:14;98964.09;;;16.63;40.67
28008;BME280;15333;50.010;20.020;2023-05-10T09:52:14;98974.81;;;16.82;38.86
28008;BME280;15333;50.010;20.020;2023-05-10T09:55:16;98963.69;;;16.86;38.48
28008;BME280;15333;50.010;20.020;2023-05-10T09:58:17;98966.28;;;16.77;37.07
28008;BME280;15333;50.010;20.020;2023-05-10T10:01:18;98968.31;;;16.75;36.56
28008;BME280;15333;50.010;20.020;2023-05-10T10:04:20;98957.09;;;16.98;37.09
28008;BME280;15333;50.010;20.020;2023-05-10T10:07:25;98950.13;;;17.13;36.98
28008;BME280;15333;50.010;20.020;2023-05-10T10:10:27;98952.16;;;17.11;35.49
28008;BME280;15333;50.010;20.020;2023-05-10T10:13:29;98953.84;;;17.12;36.41
28008;BME280;15333;50.010;20.020;2023-05-10T10:16:30;98941.09;;;17.40;38.53
28008;BME280;15333;50.010;20.020;2023-05-10T10:19:35;98948.59;;;17.64;36.60
28008;BME280;15333;50.010;20.020;2023-05-10T10:22:37;98936.22;;;17.43;36.48
28008;BME280;15333;50.010;20.020;2023-05-10T10:25:38;98938.38;;;17.57;35.28
28008;BME280;15333;50.010;20.020;2023-05-10T10:31:55;98931.28;;;17.21;37.52
28008;BME280;15333;50.010;20.020;2023-05-10T10:34:59;98931.38;;;17.11;38.19
28008;BME280;15333;50.010;20.020;2023-05-10T10:38:00;98931.13;;;17.40;37.01
28008;BME280;15333;50.010;20.020;2023-05-10T10:41:11;98921.13;;;17.41;34.75
28008;BME280;15333;50.010;20.020;2023-05-10T10:47:37;98918.63;;;17.39;34.51
28008;BME280;15333;50.010;20.020;2023-05-10T10:50:45;98914.97;;;17.92;35.30
28008;BME280;15333;50.010;20.020;2023-05-10T10:53:48;98921.44;;;17.99;35.23
28008;BME280;15333;50.010;20.020;2023-05-10T10:57:12;98917.06;;;17.54;36.28
28008;BME280;15333;50.010;20.020;2023-05-10T11:03:21;98906.38;;;17.35;34.37
28008;BME280;15333;50.010;20.020;2023-05-10T11:06:31;98897.34;;;17.44;35.34
28008;BME280;15333;50.010;20.020;2023-05-10T11:09:39;98900.97;;;17.96;37.53
28008;BME280;15333;50.010;20.020;2023-05-10T11:13:12;98896.63;;;18.04;36.81
28008;BME280;15333;50.010;20.020;2023-05-10T11:16:20;98892.03;;;18.04;35.82
28008;BME280;15333;50.010;20.020;2023-05-10T11:19:21;98906.84;;;17.92;36.46
28008;BME280;15333;50.010;20.020;2023-05-10T11:22:27;98889.66;;;17.57;35.68
28008;BME280;15333;50.010;20.020;2023-05-10T11:25:29;98894.78;;;17.60;36.01
28008;BME280;15333;50.010;20.020;2023-05-10T11:28:30;98892.31;;;17.93;37.03
28008;BME280;15333;50.010;20.020;2023-05-10T11:31:31;98898.19;;;18.14;36.31
28008;BME280;15333;50.010;20.020;2023-05-10T11:34:32;98901.59;;;17.65;37.64
28008;BME280;15333;50.010;20.020;2023-05-10T11:37:35;98898.13;;;17.37;37.94
28008;BME280;15333;50.010;20.020;2023-05-10T11:40:37;98898.03;;;17.46;38.59
28008;BME280;15333;50.010;20.020;2023-05-10T11:43:39;98891.63;;;17.47;37.62
28008;BME280;15333;50.010;20.020;2023-05-10T11:46:41;98891.72;;;17.81;37.74
28008;BME280;15333;50.010;20.020;2023-05-10T11:49:46;98885.84;;;18.20;36.14
28008;BME280;15333;50.010;20.020;2023-05-10T11:52:51;98891.56;;;17.83;36.96
28008;BME280;15333;50.010;20.020;2023-05-10T11:55:52;98892.47;;;17.66;36.42
28008;BME280;15333;50.010;20.020;2023-05-10T11:58:55;98894.34;;;17.47;36.44
28008;BME280;15333;50.010;20.020;2023-05-10T12:01:56;98886.50;;;17.62;36.37
28008;BME280;15333;50.010;20.020;2023-05-10T12:04:57;98888.91;;;17.91;36.01
28008;BME280;15333;50.010;20.020;2023-05-10T12:08:14;98886.53;;;17.88;35.93
28008;BME280;15333;50.010;20.020;2023-05-10T12:11:16;98879.69;;;17.76;34.98
28008;BME280;15333;50.010;20.020;2023-05-10T12:14:17;98878.34;;;17.80;35.59
28008;BME280;15333;50.010;20.020;2023-05-10T12:17:20;98873.44;;;17.83;36.41
28008;BME280;15333;50.010;20.020;2023-05-10T12:20:26;98867.91;;;18.19;38.09
28008;BME280;15333;50.010;20.020;2023-05-10T12:23:28;98884.78;;;18.13;37.45
28008;BME280;15333;50.010;20.020;2023-05-10T12:26:29;98866.13;;;18.02;37.03
28008;BME280;15333;50.010;20.020;2023-05-10T12:29:30;98876.47;;;18.06;36.62
28008;BME280;15333;50.010;20.020;2023-05-10T12:32:41;98868.72;;;18.11;37.22
28008;BME280;15333;50.010;20.020;2023-05-10T12:35:50;98870.38;;;17.78;36.09
28008;BME280;15333;50.010;20.020;2023-05-10T12:39:02;98864.97;;;17.78;36.54
28008;BME280;15333;50.010;20.020;2023-05-10T12:42:04;98863.31;;;17.85;36.69
28008;BME280;15333;50.010;20.020;2023-05-10T12:45:06;98846.63;;;17.98;37.03
28008;BME280;15333;50.010;20.020;2023-05-10T12:48:08;98851.19;;;17.97;36.62
28008;BME280;15333;50.010;20.020;2023-05-10T12:51:09;98848.56;;;18.14;35.86
28008;BME280;15333;50.010;20.020;2023-05-10T12:54:12;98850.06;;;18.08;36.85
28008;BME280;15333;50.010;20.020;2023-05-10T12:57:13;98847.00;;;18.03;36.35
28008;BME280;15333;50.010;20.020;2023-05-10T13:00:14;98847.53;;;18.07;37.94
28008;BME280;15333;50.010;20.020;2023-05-10T13:03:15;98830.41;;;18.06;36.88
28008;BME280;15333;50.010;20.020;2023-05-10T13:06:16;98838.84;;;17.95;36.61
28008;BME280;15333;50.010;20.020;2023-05-10T13:09:17;98830.16;;;18.17;37.30
28008;BME280;15333;50.010;20.020;2023-05-10T13:12:19;98826.78;;;18.23;36.98
28008;BME280;15333;50.010;20.020;2023-05-10T13:15:21;98824.41;;;18.28;36.89
28008;BME280;15333;50.010;20.020;2023-05-10T13:18:22;98825.81;;;18.32;38.01
28008;BME280;15333;50.010;20.020;2023-05-10T13:21:23;98834.88;;;18.15;37.38
28008;BME280;15333;50.010;20.020;2023-05-10T13:24:25;98833.16;;;18.14;36.80
28008;BME280;15333;50.010;20.020;2023-05-10T13:27:26;98820.19;;;18.26;36.52
28008;BME280;15333;50.010;20.020;2023-05-10T13:30:27;98812.91;;;18.34;36.39
28008;BME280;15333;50.010;20.020;2023-05-10T13:33:29;98814.81;;;18.42;37.29
28008;BME280;15333;50.010;20.020;2023-05-10T13:36:30;98812.47;;;18.55;37.56
28008;BME280;15333;50.010;20.020;2023-05-10T13:39:31;98811.28;;;18.50;36.15
28008;BME280;15333;50.010;20.020;2023-05-10T13:42:35;98807.09;;;18.63;36.99
28008;BME280;15333;50.010;20.020;2023-05-10T13:45:36;98801.81;;;18.54;36.70
28008;BME280;15333;50.010;20.020;2023-05-10T13:48:37;98799.41;;;18.43;36.87
28008;BME280;15333;50.010;20.020;2023-05-10T13:51:38;98796.66;;;18.34;37.07
28008;BME280;15333;50.010;20.020;2023-05-10T13:54:39;98794.16;;;18.49;36.64
28008;BME280;15333;50.010;20.020;2023-05-10T13:57:40;98786.94;;;18.66;37.63
28008;BME280;15333;50.010;20.020;2023-05-10T14:00:41;98782.19;;;18.60;36.55
28008;BME280;15333;50.010;20.020;2023-05-10T14:03:42;98780.09;;;18.37;36.50
28008;BME280;15333;50.010;20.020;2023-05-10T14:06:43;98795.69;;;18.44;36.47
28008;BME280;15333;50.010;20.020;2023-05-10T14:09:44;98784.88;;;18.52;35.67
28008;BME280;15333;50.010;20.020;2023-05-10T14:12:46;98783.22;;;18.59;36.40
28008;BME280;15333;50.010;20.020;2023-05-10T14:15:47;98781.81;;;18.55;37.37
28008;BME280;15333;50.010;20.020;2023-05-10T14:18:48;98783.63;;;18.30;36.45
28008;BME280;15333;50.010;20.020;2023-05-10T14:21:49;98780.88;;;18.22;36.82
28008;BME280;15333;50.010;20.020;2023-05-10T14:24:52;98782.75;;;18.29;37.09
28008;BME280;15333;50.010;20.020;2023-05-10T14:27:53;98779.22;;;18.29;36.15
28008;BME280;15333;50.010;20.020;2023-05-10T14:30:55;98773.91;;;18.11;36.00
28008;BME280;15333;50.010;20.020;2023-05-10T14:33:56;98774.41;;;18.15;36.72
28008;BME280;15333;50.010;20.020;2023-05-10T14:36:58;98774.78;;;18.28;36.71
28008;BME280;15333;50.010;20.020;2023-05-10T14:39:59;98780.41;;;18.34;37.09
28008;BME280;15333;50.010;20.020;2023-05-10T14:43:01;98778.06;;;18.48;36.94
28008;BME280;15333;50.010;20.020;2023-05-10T14:46:01;98781.63;;;18.40;37.13
28008;BME280;15333;50.010;20.020;2023-05-10T14:49:03;98764.31;;;18.41;35.69
28008;BME280;15333;50.010;20.020;2023-05-10T14:52:03;98784.66;;;18.37;36.24
28008;BME280;15333;50.010;20.020;2023-05-10T14:55:05;98769.91;;;18.31;36.11
28008;BME280;15333;50.010;20.020;2023-05-10T14:58:06;98779.72;;;18.24;36.19
28008;BME280;15333;50.010;20.020;2023-05-10T15:01:07;98782.59;;;18.23;36.97
28008;BME280;15333;50.010;20.020;2023-05-10T15:04:08;98773.56;;;18.14;36.89
28008;BME280;15333;50.010;20.020;2023-05-10T15:07:10;98771.25;;;18.27;36.65
28008;BME280;15333;50.010;20.020;2023-05-10T15:10:15;98776.00;;;18.25;36.79
28008;BME280;15333;50.010;20.020;2023-05-10T15:13:16;98775.16;;;18.25;36.75
28008;BME280;15333;50.010;20.020;2023-05-10T15:16:17;98778.19;;;18.30;36.62
28008;BME280;15333;50.010;20.020;2023-05-10T15:19:19;98772.47;;;18.33;37.12
28008;BME280;15333;50.010;20.020;2023-05-10T15:22:20;98766.81;;;18.26;36.82
28008;BME280;15333;50.010;20.020;2023-05-10T15:25:22;98758.34;;;18.21;37.11
28008;BME280;15333;50.010;20.020;2023-05-10T15:28:24;98765.44;;;18.14;36.65
28008;BME280;15333;50.010;20.020;2023-05-10T15:31:25;98763.41;;;18.08;36.61
28008;BME280;15333;50.010;20.020;2023-05-10T15:34:27;98759.69;;;18.09;37.17
28008;BME280;15333;50.010;20.020;2023-05-10T15:37:28;98755.31;;;18.16;37.30
28008;BME280;15333;50.010;20.020;2023-05-10T15:40:29;98767.00;;;18.17;37.15
28008;BME280;15333;50.010;20.020;2023-05-10T15:43:30;98760.44;;;18.44;36.06
28008;BME280;15333;50.010;20.020;2023-05-10T15:46:32;98757.44;;;18.63;36.09
28008;BME280;15333;50.010;20.020;2023-05-10T15:49:33;98752.72;;;19.13;35.14
28008;BME280;15333;50.010;20.020;2023-05-10T15:52:34;98758.47;;;19.18;34.77
28008;BME280;15333;50.010;20.020;2023-05-10T15:55:37;98758.84;;;19.15;35.67
28008;BME280;15333;50.010;20.020;2023-05-10T15:58:38;98754.94;;;19.18;34.38
28008;BME280;15333;50.010;20.020;2023-05-10T16:01:41;98754.75;;;19.20;35.24
28008;BME280;15333;50.010;20.020;2023-05-10T16:04:42;98767.63;;;19.34;34.19
28008;BME280;15333;50.010;20.020;2023-05-10T16:07:44;98756.13;;;19.07;35.14
28008;BME280;15333;50.010;20.020;2023-05-10T16:10:46;98754.38;;;19.55;34.97